sensor_id;sensor_type;location;lat;lon;timestamp;temperature;humidity
15113;DHT22;7657;50.140;7.076;2023-04-25T00:02:11;7.90;99.90
15113;DHT22;7657;50.140;7.076;2023-04-25T00:04:38;7.80;99.90
15113;DHT22;7657;50.140;7.076;2023-04-25T00:07:05;7.80;99.90
15113;DHT22;7657;50.140;7.076;2023-04-25T00:09:34;7.80;99.90
15113;DHT22;7657;50.140;7.076;2023-04-25T00:12:01;7.80;99.90
15113;DHT22;7657;50.140;7.076;2023-04-25T00:14:28;7.70;99.90
15113;DHT22;7657;50.140;7.076;2023-04-25T00:16:55;7.80;99.90
15113;DHT22;7657;50.140;7.076;2023-04-25T00:19:22;7.90;99.90
15113;DHT22;7657;50.140;7.076;2023-04-25T00:21:48;7.90;99.90
15113;DHT22;7657;50.140;7.076;2023-04-25T00:24:15;7.80;99.90
15113;DHT22;7657;50.140;7.076;2023-04-25T00:26:44;7.80;99.90
15113;DHT22;7657;50.140;7.076;2023-04-25T00:29:10;7.70;99.90
15113;DHT22;7657;50.140;7.076;2023-04-25T00:31:37;7.70;99.90
15113;DHT22;7657;50.140;7.076;2023-04-25T00:34:05;7.70;99.90
15113;DHT22;7657;50.140;7.076;2023-04-25T00:36:32;7.60;99.90
15113;DHT22;7657;50.140;7.076;2023-04-25T00:38:59;7.70;99.90
15113;DHT22;7657;50.140;7.076;2023-04-25T00:41:26;7.70;99.90
15113;DHT22;7657;50.140;7.076;2023-04-25T00:43:56;7.70;99.90
15113;DHT22;7657;50.140;7.076;2023-04-25T00:46:23;7.70;99.90
15113;DHT22;7657;50.140;7.076;2023-04-25T00:48:50;7.70;99.90
15113;DHT22;7657;50.140;7.076;2023-04-25T00:51:19;7.70;99.90
15113;DHT22;7657;50.140;7.076;2023-04-25T00:53:47;7.70;99.90
15113;DHT22;7657;50.140;7.076;2023-04-25T00:56:15;7.60;99.90
15113;DHT22;7657;50.140;7.076;2023-04-25T00:58:42;7.70;99.90
15113;DHT22;7657;50.140;7.076;2023-04-25T01:01:11;7.60;99.90
15113;DHT22;7657;50.140;7.076;2023-04-25T01:03:39;7.60;99.90
15113;DHT22;7657;50.140;7.076;2023-04-25T01:06:08;7.40;99.90
15113;DHT22;7657;50.140;7.076;2023-04-25T01:08:35;7.50;99.90
15113;DHT22;7657;50.140;7.076;2023-04-25T01:11:02;7.60;99.90
15113;DHT22;7657;50.140;7.076;2023-04-25T01:13:30;7.50;99.90
15113;DHT22;7657;50.140;7.076;2023-04-25T01:15:57;7.60;99.90
15113;DHT22;7657;50.140;7.076;2023-04-25T01:18:26;7.60;99.90
15113;DHT22;7657;50.140;7.076;2023-04-25T01:20:53;7.70;99.90
15113;DHT22;7657;50.140;7.076;2023-04-25T01:23:22;7.60;99.90
15113;DHT22;7657;50.140;7.076;2023-04-25T01:25:50;7.50;99.90
15113;DHT22;7657;50.140;7.076;2023-04-25T01:28:17;7.50;99.90
15113;DHT22;7657;50.140;7.076;2023-04-25T01:30:45;7.50;99.90
15113;DHT22;7657;50.140;7.076;2023-04-25T01:33:13;7.60;99.90
15113;DHT22;7657;50.140;7.076;2023-04-25T01:35:40;7.60;99.90
15113;DHT22;7657;50.140;7.076;2023-04-25T01:38:08;7.60;99.90
15113;DHT22;7657;50.140;7.076;2023-04-25T01:40:37;7.70;99.90
15113;DHT22;7657;50.140;7.076;2023-04-25T01:43:05;7.70;99.90
15113;DHT22;7657;50.140;7.076;2023-04-25T01:45:34;7.70;99.90
15113;DHT22;7657;50.140;7.076;2023-04-25T01:48:02;7.80;99.90
15113;DHT22;7657;50.140;7.076;2023-04-25T01:50:29;7.90;99.90
15113;DHT22;7657;50.140;7.076;2023-04-25T01:52:56;7.80;99.90
15113;DHT22;7657;50.140;7.076;2023-04-25T01:55:23;7.80;99.90
15113;DHT22;7657;50.140;7.076;2023-04-25T01:57:51;7.90;99.90
15113;DHT22;7657;50.140;7.076;2023-04-25T02:00:18;7.90;99.90
15113;DHT22;7657;50.140;7.076;2023-04-25T02:02:46;7.90;99.90
15113;DHT22;7657;50.140;7.076;2023-04-25T02:05:13;7.90;99.90
15113;DHT22;7657;50.140;7.076;2023-04-25T02:07:40;7.90;99.90
15113;DHT22;7657;50.140;7.076;2023-04-25T02:10:08;8.00;99.90
15113;DHT22;7657;50.140;7.076;2023-04-25T02:12:35;8.00;99.90
15113;DHT22;7657;50.140;7.076;2023-04-25T02:15:05;8.10;99.90
15113;DHT22;7657;50.140;7.076;2023-04-25T02:17:32;8.20;99.90
15113;DHT22;7657;50.140;7.076;2023-04-25T02:19:59;8.10;99.90
15113;DHT22;7657;50.140;7.076;2023-04-25T02:22:26;8.10;99.90
15113;DHT22;7657;50.140;7.076;2023-04-25T02:24:55;8.20;99.90
15113;DHT22;7657;50.140;7.076;2023-04-25T02:27:22;8.30;99.90
15113;DHT22;7657;50.140;7.076;2023-04-25T02:29:49;8.30;99.90
15113;DHT22;7657;50.140;7.076;2023-04-25T02:32:17;8.30;99.90
15113;DHT22;7657;50.140;7.076;2023-04-25T02:34:44;8.30;99.90
15113;DHT22;7657;50.140;7.076;2023-04-25T02:37:11;8.30;99.90
15113;DHT22;7657;50.140;7.076;2023-04-25T02:39:38;8.30;99.90
15113;DHT22;7657;50.140;7.076;2023-04-25T02:42:05;8.30;99.90
15113;DHT22;7657;50.140;7.076;2023-04-25T02:44:31;8.40;99.90
15113;DHT22;7657;50.140;7.076;2023-04-25T02:46:58;8.30;99.90
15113;DHT22;7657;50.140;7.076;2023-04-25T02:49:27;8.20;99.90
15113;DHT22;7657;50.140;7.076;2023-04-25T02:51:53;8.10;99.90
15113;DHT22;7657;50.140;7.076;2023-04-25T02:54:20;8.00;99.90
15113;DHT22;7657;50.140;7.076;2023-04-25T02:56:47;7.90;99.90
15113;DHT22;7657;50.140;7.076;2023-04-25T02:59:14;7.90;99.90
15113;DHT22;7657;50.140;7.076;2023-04-25T03:01:41;7.90;99.90
15113;DHT22;7657;50.140;7.076;2023-04-25T03:04:08;7.70;99.90
15113;DHT22;7657;50.140;7.076;2023-04-25T03:06:36;7.70;99.90
15113;DHT22;7657;50.140;7.076;2023-04-25T03:09:03;7.70;99.90
15113;DHT22;7657;50.140;7.076;2023-04-25T03:11:30;7.80;99.90
15113;DHT22;7657;50.140;7.076;2023-04-25T03:13:57;7.90;99.90
15113;DHT22;7657;50.140;7.076;2023-04-25T03:16:24;7.70;99.90
15113;DHT22;7657;50.140;7.076;2023-04-25T03:18:51;7.70;99.90
15113;DHT22;7657;50.140;7.076;2023-04-25T03:21:18;7.80;99.90
15113;DHT22;7657;50.140;7.076;2023-04-25T03:23:46;7.90;99.90
15113;DHT22;7657;50.140;7.076;2023-04-25T03:26:13;8.00;99.90
15113;DHT22;7657;50.140;7.076;2023-04-25T03:28:40;7.90;99.90
15113;DHT22;7657;50.140;7.076;2023-04-25T03:31:07;7.80;99.90
15113;DHT22;7657;50.140;7.076;2023-04-25T03:33:33;7.80;99.90
15113;DHT22;7657;50.140;7.076;2023-04-25T03:36:00;7.70;99.90
15113;DHT22;7657;50.140;7.076;2023-04-25T03:38:27;7.70;99.90
15113;DHT22;7657;50.140;7.076;2023-04-25T03:40:55;7.80;99.90
15113;DHT22;7657;50.140;7.076;2023-04-25T03:43:22;7.90;99.90
15113;DHT22;7657;50.140;7.076;2023-04-25T03:45:49;7.80;99.90
15113;DHT22;7657;50.140;7.076;2023-04-25T03:48:17;7.80;99.90
15113;DHT22;7657;50.140;7.076;2023-04-25T03:50:45;7.90;99.90
15113;DHT22;7657;50.140;7.076;2023-04-25T03:53:11;7.90;99.90
15113;DHT22;7657;50.140;7.076;2023-04-25T03:55:38;7.90;99.90
15113;DHT22;7657;50.140;7.076;2023-04-25T03:58:06;7.80;99.90
15113;DHT22;7657;50.140;7.076;2023-04-25T04:00:34;7.70;99.90
15113;DHT22;7657;50.140;7.076;2023-04-25T04:03:01;7.80;99.90
15113;DHT22;7657;50.140;7.076;2023-04-25T04:05:28;7.80;99.90
15113;DHT22;7657;50.140;7.076;2023-04-25T04:07:55;7.80;99.90
15113;DHT22;7657;50.140;7.076;2023-04-25T04:10:22;7.90;99.90
15113;DHT22;7657;50.140;7.076;2023-04-25T04:12:49;7.90;99.90
15113;DHT22;7657;50.140;7.076;2023-04-25T04:15:18;7.80;99.90
15113;DHT22;7657;50.140;7.076;2023-04-25T04:17:44;7.80;99.90
15113;DHT22;7657;50.140;7.076;2023-04-25T04:20:12;7.70;99.90
15113;DHT22;7657;50.140;7.076;2023-04-25T04:22:39;7.70;99.90
15113;DHT22;7657;50.140;7.076;2023-04-25T04:25:06;7.70;99.90
15113;DHT22;7657;50.140;7.076;2023-04-25T04:27:33;7.80;99.90
15113;DHT22;7657;50.140;7.076;2023-04-25T04:30:01;7.70;99.90
15113;DHT22;7657;50.140;7.076;2023-04-25T04:32:30;7.80;99.90
15113;DHT22;7657;50.140;7.076;2023-04-25T04:34:58;7.80;99.90
15113;DHT22;7657;50.140;7.076;2023-04-25T04:37:25;7.90;99.90
15113;DHT22;7657;50.140;7.076;2023-04-25T04:39:52;7.80;99.90
15113;DHT22;7657;50.140;7.076;2023-04-25T04:42:19;7.80;99.90
15113;DHT22;7657;50.140;7.076;2023-04-25T04:44:46;7.90;99.90
15113;DHT22;7657;50.140;7.076;2023-04-25T04:47:13;7.70;99.90
15113;DHT22;7657;50.140;7.076;2023-04-25T04:49:41;7.80;99.90
15113;DHT22;7657;50.140;7.076;2023-04-25T04:52:08;7.70;99.90
15113;DHT22;7657;50.140;7.076;2023-04-25T04:54:35;7.70;99.90
15113;DHT22;7657;50.140;7.076;2023-04-25T04:57:02;7.60;99.90
15113;DHT22;7657;50.140;7.076;2023-04-25T04:59:29;7.70;99.90
15113;DHT22;7657;50.140;7.076;2023-04-25T05:01:56;7.70;99.90
15113;DHT22;7657;50.140;7.076;2023-04-25T05:04:23;7.80;99.90
15113;DHT22;7657;50.140;7.076;2023-04-25T05:06:51;7.80;99.90
15113;DHT22;7657;50.140;7.076;2023-04-25T05:09:18;7.80;99.90
15113;DHT22;7657;50.140;7.076;2023-04-25T05:11:45;7.80;99.90
15113;DHT22;7657;50.140;7.076;2023-04-25T05:14:12;7.70;99.90
15113;DHT22;7657;50.140;7.076;2023-04-25T05:16:39;7.70;99.90
15113;DHT22;7657;50.140;7.076;2023-04-25T05:19:06;7.70;99.90
15113;DHT22;7657;50.140;7.076;2023-04-25T05:21:33;7.70;99.90
15113;DHT22;7657;50.140;7.076;2023-04-25T05:24:01;7.80;99.90
15113;DHT22;7657;50.140;7.076;2023-04-25T05:26:28;7.80;99.90
15113;DHT22;7657;50.140;7.076;2023-04-25T05:28:56;7.80;99.90
15113;DHT22;7657;50.140;7.076;2023-04-25T05:31:23;7.90;99.90
15113;DHT22;7657;50.140;7.076;2023-04-25T05:33:50;8.00;99.90
15113;DHT22;7657;50.140;7.076;2023-04-25T05:36:18;8.10;99.90
15113;DHT22;7657;50.140;7.076;2023-04-25T05:38:45;8.10;99.90
15113;DHT22;7657;50.140;7.076;2023-04-25T05:41:13;8.00;99.90
15113;DHT22;7657;50.140;7.076;2023-04-25T05:43:41;8.00;99.90
15113;DHT22;7657;50.140;7.076;2023-04-25T05:46:10;8.00;99.90
15113;DHT22;7657;50.140;7.076;2023-04-25T05:48:37;8.00;99.90
15113;DHT22;7657;50.140;7.076;2023-04-25T05:51:04;8.00;99.90
15113;DHT22;7657;50.140;7.076;2023-04-25T05:53:31;8.10;99.90
15113;DHT22;7657;50.140;7.076;2023-04-25T05:55:58;8.10;99.90
15113;DHT22;7657;50.140;7.076;2023-04-25T05:58:26;8.20;99.90
15113;DHT22;7657;50.140;7.076;2023-04-25T06:00:53;8.20;99.90
15113;DHT22;7657;50.140;7.076;2023-04-25T06:03:20;8.30;99.90
15113;DHT22;7657;50.140;7.076;2023-04-25T06:05:48;8.30;99.90
15113;DHT22;7657;50.140;7.076;2023-04-25T06:08:14;8.30;99.90
15113;DHT22;7657;50.140;7.076;2023-04-25T06:10:41;8.30;99.90
15113;DHT22;7657;50.140;7.076;2023-04-25T06:13:08;8.20;99.90
15113;DHT22;7657;50.140;7.076;2023-04-25T06:15:36;8.00;99.90
15113;DHT22;7657;50.140;7.076;2023-04-25T06:18:03;8.00;99.90
15113;DHT22;7657;50.140;7.076;2023-04-25T06:20:30;7.90;99.90
15113;DHT22;7657;50.140;7.076;2023-04-25T06:22:57;7.90;99.90
15113;DHT22;7657;50.140;7.076;2023-04-25T06:25:24;7.60;99.90
15113;DHT22;7657;50.140;7.076;2023-04-25T06:27:51;7.60;99.90
15113;DHT22;7657;50.140;7.076;2023-04-25T06:30:18;7.40;99.90
15113;DHT22;7657;50.140;7.076;2023-04-25T06:32:49;7.20;99.90
15113;DHT22;7657;50.140;7.076;2023-04-25T06:35:16;7.20;99.90
15113;DHT22;7657;50.140;7.076;2023-04-25T06:37:43;7.30;99.90
15113;DHT22;7657;50.140;7.076;2023-04-25T06:40:10;7.40;99.90
15113;DHT22;7657;50.140;7.076;2023-04-25T06:42:37;7.60;99.90
15113;DHT22;7657;50.140;7.076;2023-04-25T06:45:04;7.60;99.90
15113;DHT22;7657;50.140;7.076;2023-04-25T06:47:31;7.50;99.90
15113;DHT22;7657;50.140;7.076;2023-04-25T06:49:59;7.60;99.90
15113;DHT22;7657;50.140;7.076;2023-04-25T06:52:26;7.60;99.90
15113;DHT22;7657;50.140;7.076;2023-04-25T06:54:53;7.50;99.90
15113;DHT22;7657;50.140;7.076;2023-04-25T06:57:20;7.20;99.90
15113;DHT22;7657;50.140;7.076;2023-04-25T06:59:47;7.20;99.90
15113;DHT22;7657;50.140;7.076;2023-04-25T07:02:14;7.20;99.90
15113;DHT22;7657;50.140;7.076;2023-04-25T07:04:41;7.30;99.90
15113;DHT22;7657;50.140;7.076;2023-04-25T07:07:09;7.20;99.90
15113;DHT22;7657;50.140;7.076;2023-04-25T07:09:36;7.40;99.90
15113;DHT22;7657;50.140;7.076;2023-04-25T07:12:03;7.30;99.90
15113;DHT22;7657;50.140;7.076;2023-04-25T07:14:30;7.30;99.90
15113;DHT22;7657;50.140;7.076;2023-04-25T07:16:57;7.40;99.90
15113;DHT22;7657;50.140;7.076;2023-04-25T07:19:24;7.30;99.90
15113;DHT22;7657;50.140;7.076;2023-04-25T07:21:52;7.30;99.90
15113;DHT22;7657;50.140;7.076;2023-04-25T07:24:20;7.20;99.90
15113;DHT22;7657;50.140;7.076;2023-04-25T07:26:47;7.30;99.90
15113;DHT22;7657;50.140;7.076;2023-04-25T07:29:14;7.30;99.90
15113;DHT22;7657;50.140;7.076;2023-04-25T07:31:41;7.30;99.90
15113;DHT22;7657;50.140;7.076;2023-04-25T07:34:08;7.30;99.90
15113;DHT22;7657;50.140;7.076;2023-04-25T07:36:35;7.40;99.90
15113;DHT22;7657;50.140;7.076;2023-04-25T07:39:02;7.30;99.90
15113;DHT22;7657;50.140;7.076;2023-04-25T07:41:30;7.30;99.90
15113;DHT22;7657;50.140;7.076;2023-04-25T07:43:57;7.30;99.90
15113;DHT22;7657;50.140;7.076;2023-04-25T07:46:24;7.40;99.90
15113;DHT22;7657;50.140;7.076;2023-04-25T07:48:51;7.40;99.90
15113;DHT22;7657;50.140;7.076;2023-04-25T07:51:18;7.40;99.90
15113;DHT22;7657;50.140;7.076;2023-04-25T07:53:47;7.40;99.90
15113;DHT22;7657;50.140;7.076;2023-04-25T07:56:14;7.50;99.90
15113;DHT22;7657;50.140;7.076;2023-04-25T07:58:42;7.60;99.90
15113;DHT22;7657;50.140;7.076;2023-04-25T08:01:09;7.80;99.90
15113;DHT22;7657;50.140;7.076;2023-04-25T08:03:36;7.90;99.90
15113;DHT22;7657;50.140;7.076;2023-04-25T08:06:03;8.00;99.90
15113;DHT22;7657;50.140;7.076;2023-04-25T08:08:30;8.10;99.90
15113;DHT22;7657;50.140;7.076;2023-04-25T08:10:57;8.20;99.90
15113;DHT22;7657;50.140;7.076;2023-04-25T08:13:24;8.20;99.90
15113;DHT22;7657;50.140;7.076;2023-04-25T08:15:52;8.10;99.90
15113;DHT22;7657;50.140;7.076;2023-04-25T08:18:20;8.10;99.90
15113;DHT22;7657;50.140;7.076;2023-04-25T08:20:47;8.20;99.90
15113;DHT22;7657;50.140;7.076;2023-04-25T08:23:13;8.20;99.90
15113;DHT22;7657;50.140;7.076;2023-04-25T08:25:40;8.20;99.90
15113;DHT22;7657;50.140;7.076;2023-04-25T08:28:07;8.20;99.90
15113;DHT22;7657;50.140;7.076;2023-04-25T08:30:34;8.30;99.90
15113;DHT22;7657;50.140;7.076;2023-04-25T08:33:03;8.20;99.90
15113;DHT22;7657;50.140;7.076;2023-04-25T08:35:30;8.20;99.90
15113;DHT22;7657;50.140;7.076;2023-04-25T08:37:58;8.20;99.90
15113;DHT22;7657;50.140;7.076;2023-04-25T08:40:27;8.20;99.90
15113;DHT22;7657;50.140;7.076;2023-04-25T08:42:57;8.20;99.90
15113;DHT22;7657;50.140;7.076;2023-04-25T08:45:26;8.30;99.90
15113;DHT22;7657;50.140;7.076;2023-04-25T08:47:54;8.20;99.90
15113;DHT22;7657;50.140;7.076;2023-04-25T08:50:24;8.20;99.90
15113;DHT22;7657;50.140;7.076;2023-04-25T08:52:53;8.20;99.90
15113;DHT22;7657;50.140;7.076;2023-04-25T08:55:21;8.30;99.90
15113;DHT22;7657;50.140;7.076;2023-04-25T08:57:48;8.20;99.90
15113;DHT22;7657;50.140;7.076;2023-04-25T09:00:16;8.10;99.90
15113;DHT22;7657;50.140;7.076;2023-04-25T09:02:44;8.10;99.90
15113;DHT22;7657;50.140;7.076;2023-04-25T09:05:13;8.20;99.90
15113;DHT22;7657;50.140;7.076;2023-04-25T09:07:41;8.40;99.90
15113;DHT22;7657;50.140;7.076;2023-04-25T09:10:09;8.40;99.90
15113;DHT22;7657;50.140;7.076;2023-04-25T09:12:36;8.50;99.90
15113;DHT22;7657;50.140;7.076;2023-04-25T09:15:05;8.50;99.90
15113;DHT22;7657;50.140;7.076;2023-04-25T09:17:32;8.40;99.90
15113;DHT22;7657;50.140;7.076;2023-04-25T09:20:07;8.60;99.90
15113;DHT22;7657;50.140;7.076;2023-04-25T09:22:34;8.70;99.90
15113;DHT22;7657;50.140;7.076;2023-04-25T09:25:08;8.60;99.90
15113;DHT22;7657;50.140;7.076;2023-04-25T09:27:35;8.60;99.90
15113;DHT22;7657;50.140;7.076;2023-04-25T09:30:03;8.60;99.90
15113;DHT22;7657;50.140;7.076;2023-04-25T09:32:30;8.60;99.90
15113;DHT22;7657;50.140;7.076;2023-04-25T09:34:57;8.40;99.90
15113;DHT22;7657;50.140;7.076;2023-04-25T09:37:25;8.50;99.90
15113;DHT22;7657;50.140;7.076;2023-04-25T09:39:54;8.30;99.90
15113;DHT22;7657;50.140;7.076;2023-04-25T09:42:24;8.30;99.90
15113;DHT22;7657;50.140;7.076;2023-04-25T09:44:53;8.30;99.90
15113;DHT22;7657;50.140;7.076;2023-04-25T09:47:23;8.50;99.90
15113;DHT22;7657;50.140;7.076;2023-04-25T09:49:51;8.50;99.90
15113;DHT22;7657;50.140;7.076;2023-04-25T09:52:20;8.40;99.90
15113;DHT22;7657;50.140;7.076;2023-04-25T09:54:49;8.50;99.90
15113;DHT22;7657;50.140;7.076;2023-04-25T09:57:17;8.80;99.90
15113;DHT22;7657;50.140;7.076;2023-04-25T09:59:47;8.90;99.90
15113;DHT22;7657;50.140;7.076;2023-04-25T10:02:17;8.90;99.90
15113;DHT22;7657;50.140;7.076;2023-04-25T10:04:48;9.20;99.90
15113;DHT22;7657;50.140;7.076;2023-04-25T10:07:18;9.30;99.90
15113;DHT22;7657;50.140;7.076;2023-04-25T10:09:48;9.10;99.90
15113;DHT22;7657;50.140;7.076;2023-04-25T10:12:16;9.00;99.90
15113;DHT22;7657;50.140;7.076;2023-04-25T10:14:45;9.00;99.90
15113;DHT22;7657;50.140;7.076;2023-04-25T10:17:14;9.20;99.90
15113;DHT22;7657;50.140;7.076;2023-04-25T10:19:41;9.20;99.90
15113;DHT22;7657;50.140;7.076;2023-04-25T10:22:13;9.20;99.90
15113;DHT22;7657;50.140;7.076;2023-04-25T10:24:41;9.10;99.90
15113;DHT22;7657;50.140;7.076;2023-04-25T10:27:09;9.10;99.90
15113;DHT22;7657;50.140;7.076;2023-04-25T10:29:37;9.20;99.90
15113;DHT22;7657;50.140;7.076;2023-04-25T10:32:05;9.30;99.90
15113;DHT22;7657;50.140;7.076;2023-04-25T10:34:40;9.30;99.90
15113;DHT22;7657;50.140;7.076;2023-04-25T10:37:09;9.40;99.90
15113;DHT22;7657;50.140;7.076;2023-04-25T10:39:38;9.50;99.90
15113;DHT22;7657;50.140;7.076;2023-04-25T10:42:05;9.50;99.90
15113;DHT22;7657;50.140;7.076;2023-04-25T10:44:33;9.50;99.90
15113;DHT22;7657;50.140;7.076;2023-04-25T10:47:01;9.80;99.90
15113;DHT22;7657;50.140;7.076;2023-04-25T10:49:34;9.80;99.90
15113;DHT22;7657;50.140;7.076;2023-04-25T10:52:26;9.80;99.90
15113;DHT22;7657;50.140;7.076;2023-04-25T10:54:56;9.80;99.90
15113;DHT22;7657;50.140;7.076;2023-04-25T10:57:36;9.70;99.90
15113;DHT22;7657;50.140;7.076;2023-04-25T11:00:09;9.50;99.90
15113;DHT22;7657;50.140;7.076;2023-04-25T11:02:38;9.40;99.90
15113;DHT22;7657;50.140;7.076;2023-04-25T11:05:09;9.40;99.90
15113;DHT22;7657;50.140;7.076;2023-04-25T11:07:39;9.60;99.90
15113;DHT22;7657;50.140;7.076;2023-04-25T11:10:10;9.60;99.90
15113;DHT22;7657;50.140;7.076;2023-04-25T11:12:37;9.60;99.90
15113;DHT22;7657;50.140;7.076;2023-04-25T11:15:06;9.80;99.90
15113;DHT22;7657;50.140;7.076;2023-04-25T11:17:33;9.70;99.90
15113;DHT22;7657;50.140;7.076;2023-04-25T11:20:00;9.70;99.90
15113;DHT22;7657;50.140;7.076;2023-04-25T11:22:33;9.60;99.90
15113;DHT22;7657;50.140;7.076;2023-04-25T11:25:05;9.60;99.90
15113;DHT22;7657;50.140;7.076;2023-04-25T11:27:32;9.70;99.90
15113;DHT22;7657;50.140;7.076;2023-04-25T11:30:10;9.80;99.90
15113;DHT22;7657;50.140;7.076;2023-04-25T11:32:38;9.70;99.90
15113;DHT22;7657;50.140;7.076;2023-04-25T11:35:06;9.80;99.90
15113;DHT22;7657;50.140;7.076;2023-04-25T11:37:35;9.80;99.90
15113;DHT22;7657;50.140;7.076;2023-04-25T11:40:03;9.70;99.90
15113;DHT22;7657;50.140;7.076;2023-04-25T11:42:32;9.80;99.90
15113;DHT22;7657;50.140;7.076;2023-04-25T11:44:59;9.90;99.90
15113;DHT22;7657;50.140;7.076;2023-04-25T11:47:28;9.90;99.90
15113;DHT22;7657;50.140;7.076;2023-04-25T11:49:57;10.10;99.90
15113;DHT22;7657;50.140;7.076;2023-04-25T11:52:24;10.10;99.90
15113;DHT22;7657;50.140;7.076;2023-04-25T11:54:52;10.10;99.90
15113;DHT22;7657;50.140;7.076;2023-04-25T11:57:19;10.20;99.90
15113;DHT22;7657;50.140;7.076;2023-04-25T11:59:46;10.30;99.90
15113;DHT22;7657;50.140;7.076;2023-04-25T12:02:24;10.20;99.90
15113;DHT22;7657;50.140;7.076;2023-04-25T12:04:52;10.20;99.90
15113;DHT22;7657;50.140;7.076;2023-04-25T12:07:19;10.40;99.90
15113;DHT22;7657;50.140;7.076;2023-04-25T12:09:53;10.50;99.90
15113;DHT22;7657;50.140;7.076;2023-04-25T12:12:20;10.50;99.90
15113;DHT22;7657;50.140;7.076;2023-04-25T12:14:48;10.50;99.90
15113;DHT22;7657;50.140;7.076;2023-04-25T12:17:16;10.60;99.90
15113;DHT22;7657;50.140;7.076;2023-04-25T12:19:46;10.50;99.90
15113;DHT22;7657;50.140;7.076;2023-04-25T12:22:21;10.50;99.90
15113;DHT22;7657;50.140;7.076;2023-04-25T12:24:48;10.30;99.90
15113;DHT22;7657;50.140;7.076;2023-04-25T12:27:16;10.40;99.90
15113;DHT22;7657;50.140;7.076;2023-04-25T12:29:52;10.40;99.90
15113;DHT22;7657;50.140;7.076;2023-04-25T12:32:19;10.10;99.90
15113;DHT22;7657;50.140;7.076;2023-04-25T12:34:46;10.10;99.90
15113;DHT22;7657;50.140;7.076;2023-04-25T12:37:13;10.20;99.90
15113;DHT22;7657;50.140;7.076;2023-04-25T12:39:40;10.10;99.90
15113;DHT22;7657;50.140;7.076;2023-04-25T12:42:07;10.20;99.90
15113;DHT22;7657;50.140;7.076;2023-04-25T12:44:38;10.10;99.90
15113;DHT22;7657;50.140;7.076;2023-04-25T12:47:05;10.00;99.90
15113;DHT22;7657;50.140;7.076;2023-04-25T12:49:32;10.20;99.90
15113;DHT22;7657;50.140;7.076;2023-04-25T12:51:59;10.20;99.90
15113;DHT22;7657;50.140;7.076;2023-04-25T12:54:26;10.30;99.90
15113;DHT22;7657;50.140;7.076;2023-04-25T12:56:53;10.50;99.90
15113;DHT22;7657;50.140;7.076;2023-04-25T12:59:20;10.60;99.90
15113;DHT22;7657;50.140;7.076;2023-04-25T13:01:48;10.70;99.90
15113;DHT22;7657;50.140;7.076;2023-04-25T13:04:15;10.70;99.90
15113;DHT22;7657;50.140;7.076;2023-04-25T13:06:43;10.50;99.90
15113;DHT22;7657;50.140;7.076;2023-04-25T13:09:10;10.50;99.90
15113;DHT22;7657;50.140;7.076;2023-04-25T13:11:37;10.40;99.90
15113;DHT22;7657;50.140;7.076;2023-04-25T13:14:05;10.30;99.90
15113;DHT22;7657;50.140;7.076;2023-04-25T13:16:32;10.30;99.90
15113;DHT22;7657;50.140;7.076;2023-04-25T13:19:00;10.50;99.90
15113;DHT22;7657;50.140;7.076;2023-04-25T13:21:29;10.60;99.90
15113;DHT22;7657;50.140;7.076;2023-04-25T13:23:56;10.80;99.90
15113;DHT22;7657;50.140;7.076;2023-04-25T13:26:23;10.60;99.90
15113;DHT22;7657;50.140;7.076;2023-04-25T13:28:50;10.50;99.90
15113;DHT22;7657;50.140;7.076;2023-04-25T13:31:16;10.60;99.90
15113;DHT22;7657;50.140;7.076;2023-04-25T13:33:43;10.60;99.90
15113;DHT22;7657;50.140;7.076;2023-04-25T13:36:12;10.70;99.90
15113;DHT22;7657;50.140;7.076;2023-04-25T13:38:39;10.70;99.90
15113;DHT22;7657;50.140;7.076;2023-04-25T13:41:09;10.90;99.90
15113;DHT22;7657;50.140;7.076;2023-04-25T13:43:36;11.10;99.90
15113;DHT22;7657;50.140;7.076;2023-04-25T13:46:03;11.20;99.90
15113;DHT22;7657;50.140;7.076;2023-04-25T13:48:30;11.20;99.90
15113;DHT22;7657;50.140;7.076;2023-04-25T13:50:58;11.20;99.90
15113;DHT22;7657;50.140;7.076;2023-04-25T13:53:27;11.00;99.90
15113;DHT22;7657;50.140;7.076;2023-04-25T13:55:54;11.00;99.90
15113;DHT22;7657;50.140;7.076;2023-04-25T13:58:20;11.10;99.90
15113;DHT22;7657;50.140;7.076;2023-04-25T14:00:47;10.90;99.90
15113;DHT22;7657;50.140;7.076;2023-04-25T14:03:14;11.00;99.90
15113;DHT22;7657;50.140;7.076;2023-04-25T14:05:41;10.90;99.90
15113;DHT22;7657;50.140;7.076;2023-04-25T14:08:09;10.90;99.90
15113;DHT22;7657;50.140;7.076;2023-04-25T14:10:37;10.90;99.90
15113;DHT22;7657;50.140;7.076;2023-04-25T14:13:04;11.00;99.90
15113;DHT22;7657;50.140;7.076;2023-04-25T14:15:32;10.90;99.90
15113;DHT22;7657;50.140;7.076;2023-04-25T14:17:59;10.80;99.90
15113;DHT22;7657;50.140;7.076;2023-04-25T14:20:27;10.70;99.90
15113;DHT22;7657;50.140;7.076;2023-04-25T14:22:54;10.70;99.90
15113;DHT22;7657;50.140;7.076;2023-04-25T14:25:21;10.80;99.90
15113;DHT22;7657;50.140;7.076;2023-04-25T14:27:50;10.50;99.90
15113;DHT22;7657;50.140;7.076;2023-04-25T14:30:17;10.40;99.90
15113;DHT22;7657;50.140;7.076;2023-04-25T14:32:45;10.40;99.90
15113;DHT22;7657;50.140;7.076;2023-04-25T14:35:12;10.50;99.90
15113;DHT22;7657;50.140;7.076;2023-04-25T14:37:39;10.50;99.90
15113;DHT22;7657;50.140;7.076;2023-04-25T14:40:07;10.40;99.90
15113;DHT22;7657;50.140;7.076;2023-04-25T14:42:35;10.40;99.90
15113;DHT22;7657;50.140;7.076;2023-04-25T14:45:05;10.30;99.90
15113;DHT22;7657;50.140;7.076;2023-04-25T14:47:32;10.20;99.90
15113;DHT22;7657;50.140;7.076;2023-04-25T14:49:59;10.20;99.90
15113;DHT22;7657;50.140;7.076;2023-04-25T14:52:27;10.20;99.90
15113;DHT22;7657;50.140;7.076;2023-04-25T14:54:54;10.30;99.90
15113;DHT22;7657;50.140;7.076;2023-04-25T14:57:20;10.20;99.90
15113;DHT22;7657;50.140;7.076;2023-04-25T14:59:47;10.30;99.90
15113;DHT22;7657;50.140;7.076;2023-04-25T15:02:16;10.20;99.90
15113;DHT22;7657;50.140;7.076;2023-04-25T15:04:43;10.10;99.90
15113;DHT22;7657;50.140;7.076;2023-04-25T15:07:10;10.10;99.90
15113;DHT22;7657;50.140;7.076;2023-04-25T15:09:36;10.00;99.90
15113;DHT22;7657;50.140;7.076;2023-04-25T15:12:04;9.80;99.90
15113;DHT22;7657;50.140;7.076;2023-04-25T15:14:31;9.80;99.90
15113;DHT22;7657;50.140;7.076;2023-04-25T15:16:59;9.70;99.90
15113;DHT22;7657;50.140;7.076;2023-04-25T15:19:27;9.60;99.90
15113;DHT22;7657;50.140;7.076;2023-04-25T15:21:54;9.40;99.90
15113;DHT22;7657;50.140;7.076;2023-04-25T15:24:22;9.50;99.90
15113;DHT22;7657;50.140;7.076;2023-04-25T15:26:48;9.60;99.90
15113;DHT22;7657;50.140;7.076;2023-04-25T15:29:16;9.60;99.90
15113;DHT22;7657;50.140;7.076;2023-04-25T15:31:42;9.60;99.90
15113;DHT22;7657;50.140;7.076;2023-04-25T15:34:09;9.70;99.90
15113;DHT22;7657;50.140;7.076;2023-04-25T15:36:38;9.90;99.90
15113;DHT22;7657;50.140;7.076;2023-04-25T15:39:04;10.10;99.90
15113;DHT22;7657;50.140;7.076;2023-04-25T15:41:31;9.90;99.90
15113;DHT22;7657;50.140;7.076;2023-04-25T15:43:59;10.00;99.90
15113;DHT22;7657;50.140;7.076;2023-04-25T15:46:27;10.10;99.90
15113;DHT22;7657;50.140;7.076;2023-04-25T15:48:55;10.00;99.90
15113;DHT22;7657;50.140;7.076;2023-04-25T15:51:22;9.90;99.90
15113;DHT22;7657;50.140;7.076;2023-04-25T15:53:50;10.00;99.90
15113;DHT22;7657;50.140;7.076;2023-04-25T15:56:17;10.10;99.90
15113;DHT22;7657;50.140;7.076;2023-04-25T15:58:44;10.10;99.90
15113;DHT22;7657;50.140;7.076;2023-04-25T16:01:11;10.10;99.90